createdAt,value
2018-04-06T00:00:23.725Z,15.80
2018-04-06T00:02:53.188Z,13.98
2018-04-06T00:05:31.785Z,12.50
2018-04-06T00:08:00.202Z,17.80
2018-04-06T00:10:29.997Z,14.00
2018-04-06T00:12:59.714Z,14.83
2018-04-06T00:15:28.789Z,16.63
2018-04-06T00:17:56.476Z,17.03
2018-04-06T00:20:25.253Z,14.03
2018-04-06T00:22:54.120Z,17.40
2018-04-06T00:25:32.492Z,15.23
2018-04-06T00:28:00.158Z,13.43
2018-04-06T00:30:27.926Z,19.83
2018-04-06T00:32:56.482Z,16.37
2018-04-06T00:35:25.067Z,14.43
2018-04-06T00:37:56.402Z,16.50
2018-04-06T00:40:27.721Z,17.45
2018-04-06T00:42:56.755Z,9.57
2018-04-06T00:45:27.679Z,11.70
2018-04-06T00:47:58.512Z,12.83
2018-04-06T00:50:26.142Z,13.47
2018-04-06T00:52:55.352Z,15.70
2018-04-06T00:55:23.657Z,16.00
2018-04-06T00:57:56.385Z,18.60
2018-04-06T01:00:27.205Z,19.57
2018-04-06T01:02:57.218Z,16.10
2018-04-06T01:05:28.402Z,15.80
2018-04-06T01:07:56.338Z,15.93
2018-04-06T01:10:24.641Z,14.77
2018-04-06T01:12:54.279Z,19.70
2018-04-06T01:15:26.107Z,21.93
2018-04-06T01:17:54.741Z,12.00
2018-04-06T01:20:27.213Z,14.97
2018-04-06T01:23:07.120Z,11.43
2018-04-06T01:25:34.639Z,14.23
2018-04-06T01:28:02.920Z,16.70
2018-04-06T01:30:30.413Z,18.90
2018-04-06T01:32:59.543Z,19.90
2018-04-06T01:35:28.710Z,15.90
2018-04-06T01:37:58.968Z,16.80
2018-04-06T01:40:28.433Z,16.73
2018-04-06T01:42:56.379Z,17.47
2018-04-06T01:45:25.656Z,17.57
2018-04-06T01:47:56.973Z,15.77
2018-04-06T01:50:27.713Z,15.70
2018-04-06T01:52:58.023Z,12.70
2018-04-06T01:55:27.475Z,15.93
2018-04-06T01:57:57.034Z,10.20
2018-04-06T02:00:28.494Z,16.17
2018-04-06T02:03:07.164Z,13.33
2018-04-06T02:05:34.705Z,14.70
2018-04-06T02:08:02.977Z,25.30
2018-04-06T02:10:30.474Z,14.60
2018-04-06T02:13:08.250Z,17.47
2018-04-06T02:15:35.746Z,15.23
2018-04-06T02:18:04.039Z,18.27
2018-04-06T02:20:32.317Z,19.07
2018-04-06T02:23:00.604Z,18.63
2018-04-06T02:25:28.914Z,11.53
2018-04-06T02:27:57.420Z,17.00
2018-04-06T02:30:35.686Z,16.43
2018-04-06T02:33:03.203Z,20.70
2018-04-06T02:35:31.482Z,23.23
2018-04-06T02:38:11.900Z,18.77
2018-04-06T02:40:39.447Z,15.27
2018-04-06T02:43:07.003Z,25.27
2018-04-06T02:45:34.533Z,19.12
2018-04-06T02:48:02.029Z,15.93
2018-04-06T02:50:30.163Z,15.47
2018-04-06T02:52:59.261Z,13.30
2018-04-06T02:55:29.658Z,12.13
2018-04-06T02:57:58.883Z,13.20
2018-04-06T03:00:27.818Z,21.87
2018-04-06T03:02:55.797Z,20.10
2018-04-06T03:05:23.514Z,24.07
2018-04-06T03:07:52.381Z,20.83
2018-04-06T03:10:26.352Z,13.83
2018-04-06T03:12:56.515Z,16.40
2018-04-06T03:15:29.452Z,13.18
2018-04-06T03:17:57.361Z,22.27
2018-04-06T03:20:25.830Z,12.00
2018-04-06T03:22:55.727Z,14.53
2018-04-06T03:25:25.349Z,14.93
2018-04-06T03:27:54.769Z,24.67
2018-04-06T03:30:27.635Z,15.00
2018-04-06T03:32:56.912Z,22.60
2018-04-06T03:35:26.878Z,15.30
2018-04-06T03:37:54.828Z,13.37
2018-04-06T03:40:23.579Z,16.70
2018-04-06T03:42:53.978Z,18.75
2018-04-06T03:45:23.140Z,20.07
2018-04-06T03:47:53.049Z,16.83
2018-04-06T03:50:23.873Z,22.30
2018-04-06T03:52:57.095Z,15.23
2018-04-06T03:55:25.930Z,16.23
2018-04-06T03:57:55.143Z,16.65
2018-04-06T04:00:25.488Z,26.60
2018-04-06T04:02:54.179Z,24.67
2018-04-06T04:05:23.278Z,16.15
2018-04-06T04:07:52.627Z,18.30
2018-04-06T04:10:21.478Z,16.45
2018-04-06T04:12:52.182Z,16.70
2018-04-06T04:15:31.660Z,36.67
2018-04-06T04:17:59.946Z,17.08
2018-04-06T04:20:27.573Z,14.77
2018-04-06T04:22:58.234Z,16.90
2018-04-06T04:25:29.273Z,15.80
2018-04-06T04:28:00.650Z,12.85
2018-04-06T04:30:30.029Z,15.90
2018-04-06T04:32:57.932Z,19.45
2018-04-06T04:35:26.232Z,12.07
2018-04-06T04:38:05.177Z,14.33
2018-04-06T04:40:32.682Z,14.35
2018-04-06T04:43:00.976Z,12.75
2018-04-06T04:45:29.977Z,14.97
2018-04-06T04:47:57.983Z,18.27
2018-04-06T04:50:27.443Z,14.82
2018-04-06T04:52:55.338Z,16.08
2018-04-06T04:55:23.452Z,32.28
2018-04-06T04:57:58.269Z,23.20
2018-04-06T05:00:26.454Z,15.52
2018-04-06T05:02:58.920Z,18.75
2018-04-06T05:05:30.038Z,18.17
2018-04-06T05:07:58.320Z,15.75
2018-04-06T05:10:27.158Z,17.55
2018-04-06T05:12:55.766Z,21.67
2018-04-06T05:15:25.408Z,27.20
2018-04-06T05:17:56.516Z,15.23
2018-04-06T05:20:26.142Z,13.40
2018-04-06T05:22:56.190Z,23.45
2018-04-06T05:25:27.243Z,19.03
2018-04-06T05:27:55.990Z,17.70
2018-04-06T05:30:24.237Z,19.03
2018-04-06T05:32:55.746Z,25.77
2018-04-06T05:35:26.285Z,19.53
2018-04-06T05:37:54.777Z,14.50
2018-04-06T05:40:26.363Z,17.33
2018-04-06T05:42:54.969Z,16.47
2018-04-06T05:45:25.601Z,17.23
2018-04-06T05:47:53.302Z,19.30
2018-04-06T05:50:24.744Z,19.23
2018-04-06T05:52:55.882Z,19.90
2018-04-06T05:55:27.019Z,25.67
2018-04-06T05:58:06.837Z,20.73
2018-04-06T06:00:34.350Z,19.80
2018-04-06T06:03:01.842Z,21.10
2018-04-06T06:05:31.274Z,22.00
2018-04-06T06:07:59.501Z,16.43
2018-04-06T06:10:28.381Z,23.93
2018-04-06T06:12:57.580Z,16.43
2018-04-06T06:15:26.280Z,14.57
2018-04-06T06:17:55.585Z,20.63
2018-04-06T06:20:25.917Z,14.60
2018-04-06T06:23:05.410Z,28.23
2018-04-06T06:25:32.929Z,21.83
2018-04-06T06:28:01.197Z,17.53
2018-04-06T06:30:28.718Z,23.40
2018-04-06T06:32:57.105Z,25.23
2018-04-06T06:35:26.749Z,18.30
2018-04-06T06:37:56.283Z,17.60
2018-04-06T06:40:26.112Z,21.40
2018-04-06T06:42:54.616Z,23.73
2018-04-06T06:45:25.634Z,18.60
2018-04-06T06:47:54.254Z,18.90
2018-04-06T06:50:23.750Z,19.93
2018-04-06T06:52:58.652Z,18.90
2018-04-06T06:55:26.662Z,19.27
2018-04-06T06:57:54.865Z,18.10
2018-04-06T07:00:22.576Z,13.63
2018-04-06T07:02:50.109Z,17.90
2018-04-06T07:05:17.613Z,14.03
2018-04-06T07:07:45.129Z,13.40
2018-04-06T07:10:13.395Z,10.90
2018-04-06T07:12:41.089Z,12.60
2018-04-06T07:15:09.557Z,13.63
2018-04-06T07:17:42.038Z,9.90
2018-04-06T07:20:09.717Z,10.40
2018-04-06T07:22:39.011Z,9.30
2018-04-06T07:25:08.398Z,13.70
2018-04-06T07:27:36.973Z,13.10
2018-04-06T07:30:16.341Z,10.37
2018-04-06T07:32:43.896Z,12.27
2018-04-06T07:35:12.163Z,9.27
2018-04-06T07:37:39.682Z,12.27
2018-04-06T07:40:08.364Z,8.00
2018-04-06T07:42:35.873Z,8.67
2018-04-06T07:45:13.489Z,12.10
2018-04-06T07:47:41.961Z,10.87
2018-04-06T07:50:09.464Z,9.43
2018-04-06T07:52:37.357Z,8.03
2018-04-06T07:55:05.895Z,7.30
2018-04-06T07:57:33.595Z,6.87
2018-04-06T08:00:03.428Z,8.17
2018-04-06T08:02:31.264Z,8.90
2018-04-06T08:04:59.854Z,9.70
2018-04-06T08:07:41.510Z,5.23
2018-04-06T08:10:09.001Z,7.07
2018-04-06T08:12:37.543Z,6.43
2018-04-06T08:15:05.146Z,8.43
2018-04-06T08:17:33.114Z,8.80
2018-04-06T08:20:03.761Z,6.17
2018-04-06T08:22:34.819Z,11.30
2018-04-06T08:25:04.021Z,7.60
2018-04-06T08:27:33.655Z,6.97
2018-04-06T08:30:04.421Z,8.57
2018-04-06T08:32:33.857Z,10.00
2018-04-06T08:35:12.430Z,9.33
2018-04-06T08:37:39.965Z,7.23
2018-04-06T08:40:08.466Z,5.53
2018-04-06T08:42:47.017Z,8.93
2018-04-06T08:45:14.506Z,11.63
2018-04-06T08:47:42.016Z,9.20
2018-04-06T08:50:09.609Z,5.87
2018-04-06T08:52:38.256Z,6.83
2018-04-06T08:55:07.716Z,6.53
2018-04-06T08:57:36.445Z,7.53
2018-04-06T09:00:04.714Z,6.00
2018-04-06T09:02:34.715Z,8.57
2018-04-06T09:05:03.256Z,5.77
2018-04-06T09:07:33.209Z,3.63
2018-04-06T09:10:04.024Z,8.10
2018-04-06T09:12:33.215Z,6.63
2018-04-06T09:15:01.727Z,5.03
2018-04-06T09:17:31.591Z,4.40
2018-04-06T09:20:02.848Z,4.43
2018-04-06T09:22:33.011Z,6.90
2018-04-06T09:25:03.330Z,4.03
2018-04-06T09:27:32.052Z,6.97
2018-04-06T09:30:10.585Z,9.80
2018-04-06T09:32:38.900Z,3.63
2018-04-06T09:35:07.230Z,5.30
2018-04-06T09:37:35.131Z,5.87
2018-04-06T09:40:03.547Z,7.30
2018-04-06T09:42:33.491Z,5.20
2018-04-06T09:45:03.110Z,5.50
2018-04-06T09:47:31.889Z,6.40
2018-04-06T09:50:00.086Z,5.30
2018-04-06T09:52:29.358Z,8.83
2018-04-06T09:54:58.010Z,10.10
2018-04-06T09:57:25.583Z,9.67
2018-04-06T09:59:53.061Z,8.37
2018-04-06T10:02:20.842Z,8.20
2018-04-06T10:04:48.599Z,6.20
2018-04-06T10:07:16.130Z,8.10
2018-04-06T10:09:43.630Z,8.53
2018-04-06T10:12:11.919Z,9.50
2018-04-06T10:14:40.172Z,8.10
2018-04-06T10:17:07.698Z,11.83
2018-04-06T10:19:35.194Z,9.33
2018-04-06T10:22:02.900Z,5.47
2018-04-06T10:24:31.457Z,9.70
2018-04-06T10:26:59.183Z,17.53
2018-04-06T10:29:27.746Z,6.00
2018-04-06T10:31:56.261Z,3.80
2018-04-06T10:34:24.561Z,6.97
2018-04-06T10:36:52.850Z,8.03
2018-04-06T10:39:20.474Z,7.77
2018-04-06T10:41:48.301Z,7.00
2018-04-06T10:44:16.590Z,8.60
2018-04-06T10:46:44.891Z,5.40
2018-04-06T10:49:13.161Z,7.03
2018-04-06T10:51:40.678Z,6.17
2018-04-06T10:54:08.257Z,4.10
2018-04-06T10:56:35.774Z,10.97
2018-04-06T10:59:04.315Z,5.00
2018-04-06T11:01:32.832Z,4.10
2018-04-06T11:04:01.721Z,5.13
2018-04-06T11:06:30.923Z,8.27
2018-04-06T11:09:08.814Z,4.83
2018-04-06T11:11:37.114Z,6.30
2018-04-06T11:14:05.417Z,4.20
2018-04-06T11:16:34.148Z,3.87
2018-04-06T11:19:02.009Z,3.50
2018-04-06T11:21:31.217Z,4.07
2018-04-06T11:23:59.357Z,7.10
2018-04-06T11:26:27.728Z,4.93
2018-04-06T11:28:55.381Z,3.87
2018-04-06T11:31:23.018Z,7.20
2018-04-06T11:33:51.297Z,6.13
2018-04-06T11:36:30.414Z,4.10
2018-04-06T11:38:59.404Z,2.90
2018-04-06T11:41:27.952Z,3.80
2018-04-06T11:43:56.370Z,3.20
2018-04-06T11:46:24.154Z,5.10
2018-04-06T11:48:51.787Z,4.77
2018-04-06T11:51:20.053Z,5.90
2018-04-06T11:53:47.977Z,6.40
2018-04-06T11:56:15.487Z,4.10
2018-04-06T11:58:43.009Z,7.63
2018-04-06T12:01:11.292Z,5.70
2018-04-06T12:03:39.566Z,8.43
2018-04-06T12:06:07.831Z,6.03
2018-04-06T12:08:35.851Z,2.70
2018-04-06T12:11:04.144Z,3.20
2018-04-06T12:13:34.095Z,8.07
2018-04-06T12:16:02.857Z,7.50
2018-04-06T12:18:31.003Z,4.50
2018-04-06T12:21:01.105Z,7.73
2018-04-06T12:23:30.337Z,3.43
2018-04-06T12:25:58.212Z,4.70
2018-04-06T12:28:25.778Z,7.40
2018-04-06T12:30:54.234Z,2.07
2018-04-06T12:33:21.844Z,7.33
2018-04-06T12:35:49.810Z,7.23
2018-04-06T12:38:17.315Z,4.47
2018-04-06T12:40:44.938Z,3.37
2018-04-06T12:43:13.214Z,6.30
2018-04-06T12:45:40.738Z,7.57
2018-04-06T12:48:08.270Z,18.00
2018-04-06T12:50:36.877Z,5.80
2018-04-06T12:53:06.420Z,2.57
2018-04-06T12:55:45.794Z,3.17
2018-04-06T12:58:13.510Z,4.57
2018-04-06T13:00:41.798Z,4.47
2018-04-06T13:03:10.403Z,3.67
2018-04-06T13:05:39.201Z,6.73
2018-04-06T13:08:08.068Z,4.73
2018-04-06T13:10:38.251Z,3.57
2018-04-06T13:13:08.489Z,4.70
2018-04-06T13:15:36.934Z,3.30
2018-04-06T13:18:05.288Z,5.10
2018-04-06T13:20:35.735Z,4.00
2018-04-06T13:23:04.644Z,5.30
2018-04-06T13:25:35.446Z,6.37
2018-04-06T13:28:06.729Z,4.80
2018-04-06T13:30:39.018Z,6.67
2018-04-06T13:33:07.293Z,6.93
2018-04-06T13:35:36.684Z,5.30
2018-04-06T13:38:07.840Z,4.10
2018-04-06T13:40:37.741Z,5.87
2018-04-06T13:43:06.346Z,3.10
2018-04-06T13:45:36.958Z,4.17
2018-04-06T13:48:06.159Z,16.20
2018-04-06T13:50:36.073Z,4.00
2018-04-06T13:53:04.722Z,2.87
2018-04-06T13:55:33.467Z,5.20
2018-04-06T13:58:12.014Z,3.80
2018-04-06T14:00:39.961Z,5.87
2018-04-06T14:03:10.322Z,4.30
2018-04-06T14:05:40.601Z,4.10
2018-04-06T14:08:11.104Z,2.67
2018-04-06T14:10:40.074Z,4.63
2018-04-06T14:13:08.121Z,3.33
2018-04-06T14:15:41.761Z,5.90
2018-04-06T14:18:10.460Z,3.80
2018-04-06T14:20:39.432Z,6.63
2018-04-06T14:23:07.731Z,5.60
2018-04-06T14:25:37.364Z,6.93
2018-04-06T14:28:16.201Z,7.83
2018-04-06T14:30:43.689Z,4.53
2018-04-06T14:33:11.275Z,4.80
2018-04-06T14:35:39.671Z,6.30
2018-04-06T14:38:08.186Z,4.27
2018-04-06T14:40:36.591Z,5.30
2018-04-06T14:43:08.105Z,6.83
2018-04-06T14:45:37.048Z,4.03
2018-04-06T14:48:06.828Z,3.60
2018-04-06T14:50:37.775Z,5.97
2018-04-06T14:53:09.046Z,5.03
2018-04-06T14:55:37.687Z,5.13
2018-04-06T14:58:06.927Z,7.97
2018-04-06T15:00:35.718Z,3.17
2018-04-06T15:03:06.338Z,5.30
2018-04-06T15:05:36.565Z,5.80
2018-04-06T15:08:08.702Z,3.87
2018-04-06T15:10:36.541Z,6.17
2018-04-06T15:13:06.582Z,5.63
2018-04-06T15:15:34.656Z,4.13
2018-04-06T15:18:03.707Z,3.00
2018-04-06T15:20:34.547Z,3.60
2018-04-06T15:23:04.381Z,3.30
2018-04-06T15:25:33.592Z,3.10
2018-04-06T15:28:04.535Z,5.40
2018-04-06T15:30:33.288Z,4.90
2018-04-06T15:33:03.606Z,3.33
2018-04-06T15:35:34.540Z,2.70
2018-04-06T15:38:05.180Z,4.83
2018-04-06T15:40:46.029Z,3.30
2018-04-06T15:43:13.559Z,7.00
2018-04-06T15:45:41.967Z,7.43
2018-04-06T15:48:11.158Z,7.20
2018-04-06T15:50:39.680Z,2.70
2018-04-06T15:53:07.712Z,5.03
2018-04-06T15:55:36.767Z,8.87
2018-04-06T15:58:07.287Z,4.13
2018-04-06T16:00:36.277Z,4.53
2018-04-06T16:03:05.483Z,5.00
2018-04-06T16:05:36.659Z,4.70
2018-04-06T16:08:06.281Z,5.93
2018-04-06T16:10:35.791Z,6.13
2018-04-06T16:13:06.651Z,4.90
2018-04-06T16:15:36.365Z,5.10
2018-04-06T16:18:18.020Z,8.97
2018-04-06T16:20:49.290Z,5.00
2018-04-06T16:23:20.596Z,3.80
2018-04-06T16:25:49.666Z,7.67
2018-04-06T16:28:20.350Z,2.47
2018-04-06T16:30:51.177Z,5.10
2018-04-06T16:33:20.422Z,3.63
2018-04-06T16:35:49.719Z,7.80
2018-04-06T16:38:20.101Z,5.87
2018-04-06T16:40:51.402Z,6.37
2018-04-06T16:43:21.825Z,6.50
2018-04-06T16:45:52.017Z,3.23
2018-04-06T16:48:21.637Z,4.90
2018-04-06T16:50:52.186Z,3.87
2018-04-06T16:53:21.361Z,7.13
2018-04-06T16:55:51.146Z,3.80
2018-04-06T16:58:21.102Z,5.10
2018-04-06T17:00:51.162Z,4.23
2018-04-06T17:03:20.730Z,5.53
2018-04-06T17:05:50.877Z,3.87
2018-04-06T17:08:19.917Z,4.00
2018-04-06T17:10:49.816Z,6.67
2018-04-06T17:13:20.711Z,3.97
2018-04-06T17:15:49.872Z,3.40
2018-04-06T17:18:20.808Z,4.60
2018-04-06T17:20:49.521Z,3.43
2018-04-06T17:23:18.899Z,3.00
2018-04-06T17:25:49.130Z,7.07
2018-04-06T17:28:27.273Z,3.87
2018-04-06T17:30:54.795Z,7.03
2018-04-06T17:33:23.061Z,4.83
2018-04-06T17:35:50.661Z,2.70
2018-04-06T17:38:18.998Z,4.57
2018-04-06T17:40:47.189Z,4.53
2018-04-06T17:43:16.006Z,4.40
2018-04-06T17:45:45.647Z,3.63
2018-04-06T17:48:15.406Z,2.70
2018-04-06T17:50:45.223Z,3.37
2018-04-06T17:53:14.861Z,5.00
2018-04-06T17:55:43.722Z,2.77
2018-04-06T17:58:12.204Z,6.40
2018-04-06T18:00:41.905Z,2.30
2018-04-06T18:03:10.697Z,2.77
2018-04-06T18:05:41.965Z,3.37
2018-04-06T18:08:10.342Z,4.73
2018-04-06T18:10:38.869Z,4.77
2018-04-06T18:13:09.148Z,5.90
2018-04-06T18:15:36.902Z,2.90
2018-04-06T18:18:04.926Z,7.73
2018-04-06T18:20:33.121Z,2.80
2018-04-06T18:23:00.763Z,3.60
2018-04-06T18:25:28.262Z,2.80
2018-04-06T18:27:55.798Z,4.63
2018-04-06T18:30:23.294Z,5.43
2018-04-06T18:32:51.575Z,7.57
2018-04-06T18:35:20.578Z,3.03
2018-04-06T18:37:48.829Z,3.60
2018-04-06T18:40:17.961Z,4.53
2018-04-06T18:42:48.408Z,4.40
2018-04-06T18:45:17.241Z,4.20
2018-04-06T18:47:49.112Z,4.33
2018-04-06T18:50:19.841Z,2.40
2018-04-06T18:52:58.761Z,9.90
2018-04-06T18:55:26.248Z,6.50
2018-04-06T18:57:53.761Z,5.17
2018-04-06T19:00:21.713Z,4.43
2018-04-06T19:02:50.433Z,2.90
2018-04-06T19:05:21.478Z,6.90
2018-04-06T19:07:51.481Z,6.13
2018-04-06T19:10:20.680Z,4.27
2018-04-06T19:12:50.951Z,3.30
2018-04-06T19:15:21.936Z,4.00
2018-04-06T19:17:51.848Z,3.17
2018-04-06T19:20:21.134Z,5.00
2018-04-06T19:22:51.466Z,4.30
2018-04-06T19:25:23.361Z,7.40
2018-04-06T19:27:51.748Z,1.73
2018-04-06T19:30:30.945Z,5.87
2018-04-06T19:32:58.436Z,4.57
2018-04-06T19:35:26.050Z,3.07
2018-04-06T19:37:53.542Z,2.80
2018-04-06T19:40:21.053Z,4.20
2018-04-06T19:42:50.449Z,4.73
2018-04-06T19:45:21.070Z,6.63
2018-04-06T19:47:51.493Z,3.40
2018-04-06T19:50:21.776Z,4.50
2018-04-06T19:52:51.633Z,6.97
2018-04-06T19:55:22.009Z,7.97
2018-04-06T19:57:51.916Z,2.70
2018-04-06T20:00:21.630Z,5.27
2018-04-06T20:02:50.341Z,2.23
2018-04-06T20:05:19.460Z,6.53
2018-04-06T20:07:50.689Z,5.00
2018-04-06T20:10:21.641Z,4.37
2018-04-06T20:12:52.077Z,3.77
2018-04-06T20:15:21.004Z,4.30
2018-04-06T20:17:51.339Z,4.63
2018-04-06T20:20:19.989Z,5.70
2018-04-06T20:22:51.077Z,5.73
2018-04-06T20:25:21.361Z,4.17
2018-04-06T20:27:51.813Z,11.70
2018-04-06T20:30:29.742Z,3.40
2018-04-06T20:32:57.346Z,3.70
2018-04-06T20:35:25.610Z,5.07
2018-04-06T20:37:53.133Z,5.43
2018-04-06T20:40:20.862Z,5.03
2018-04-06T20:42:50.809Z,4.80
2018-04-06T20:45:20.068Z,3.63
2018-04-06T20:47:49.243Z,4.40
2018-04-06T20:50:19.780Z,4.50
2018-04-06T20:52:49.743Z,5.97
2018-04-06T20:55:19.669Z,5.77
2018-04-06T20:57:48.240Z,4.67
2018-04-06T21:00:18.024Z,5.07
2018-04-06T21:02:47.603Z,6.60
2018-04-06T21:05:17.615Z,5.53
2018-04-06T21:07:47.348Z,3.37
2018-04-06T21:10:17.621Z,4.27
2018-04-06T21:12:47.996Z,7.80
2018-04-06T21:15:18.598Z,6.00
2018-04-06T21:17:49.399Z,4.27
2018-04-06T21:20:19.291Z,6.07
2018-04-06T21:22:47.537Z,9.07
2018-04-06T21:25:17.708Z,4.83
2018-04-06T21:27:46.609Z,7.70
2018-04-06T21:30:16.829Z,4.73
2018-04-06T21:32:47.443Z,3.43
2018-04-06T21:35:19.302Z,5.20
2018-04-06T21:37:48.469Z,3.33
2018-04-06T21:40:19.899Z,17.10
2018-04-06T21:42:49.575Z,4.30
2018-04-06T21:45:20.209Z,8.73
2018-04-06T21:47:50.070Z,4.13
2018-04-06T21:50:20.894Z,5.20
2018-04-06T21:52:49.045Z,9.33
2018-04-06T21:55:26.916Z,5.17
2018-04-06T21:57:55.179Z,5.80
2018-04-06T22:00:22.769Z,8.47
2018-04-06T22:02:51.100Z,7.50
2018-04-06T22:05:29.126Z,5.53
2018-04-06T22:07:56.619Z,4.60
2018-04-06T22:10:24.141Z,6.50
2018-04-06T22:12:51.641Z,4.60
2018-04-06T22:15:21.015Z,4.40
2018-04-06T22:17:50.200Z,5.93
2018-04-06T22:20:21.146Z,8.60
2018-04-06T22:22:50.261Z,5.30
2018-04-06T22:25:21.141Z,7.50
2018-04-06T22:27:49.505Z,5.70
2018-04-06T22:30:19.965Z,7.83
2018-04-06T22:32:50.457Z,7.93
2018-04-06T22:35:30.993Z,7.53
2018-04-06T22:37:58.560Z,5.77
2018-04-06T22:40:26.062Z,5.20
2018-04-06T22:42:53.574Z,4.60
2018-04-06T22:45:37.345Z,7.57
2018-04-06T22:48:16.927Z,4.80
2018-04-06T22:50:49.555Z,6.10
2018-04-06T22:53:38.899Z,5.13
2018-04-06T22:56:21.827Z,9.20
2018-04-06T22:59:03.338Z,6.07
2018-04-06T23:01:30.855Z,8.87
2018-04-06T23:03:58.362Z,6.30
2018-04-06T23:06:25.878Z,8.73
2018-04-06T23:08:53.369Z,6.23
2018-04-06T23:11:22.208Z,7.43
2018-04-06T23:13:52.305Z,5.97
2018-04-06T23:16:22.637Z,5.37
2018-04-06T23:18:52.193Z,8.47
2018-04-06T23:21:22.401Z,6.00
2018-04-06T23:23:52.337Z,4.80
2018-04-06T23:26:30.162Z,4.20
2018-04-06T23:28:57.657Z,7.40
2018-04-06T23:31:25.155Z,6.03
2018-04-06T23:33:52.919Z,9.37
2018-04-06T23:36:22.770Z,6.07
2018-04-06T23:38:57.685Z,9.03
2018-04-06T23:41:34.782Z,6.50
2018-04-06T23:44:02.325Z,5.33
2018-04-06T23:46:30.824Z,6.60
2018-04-06T23:48:59.101Z,5.83
2018-04-06T23:51:26.589Z,6.07
2018-04-06T23:53:54.902Z,6.40
2018-04-06T23:56:23.190Z,6.87
2018-04-06T23:58:52.143Z,6.00
